createdAt,value
2019-04-11T00:01:42.029Z,46.80
2019-04-11T00:03:13.662Z,47.00
2019-04-11T00:09:37.296Z,46.40
2019-04-11T00:11:13.502Z,47.30
2019-04-11T00:12:50.311Z,46.90
2019-04-11T00:14:26.059Z,46.80
2019-04-11T00:19:12.263Z,49.80
2019-04-11T00:20:48.484Z,46.60
2019-04-11T00:22:24.072Z,46.50
2019-04-11T00:24:00.773Z,46.00
2019-04-11T00:28:47.888Z,45.80
2019-04-11T00:30:24.508Z,46.30
2019-04-11T00:32:01.264Z,46.40
2019-04-11T00:33:36.785Z,46.30
2019-04-11T00:35:12.285Z,46.40
2019-04-11T00:36:48.481Z,46.40
2019-04-11T00:38:24.332Z,46.40
2019-04-11T00:39:59.841Z,46.40
2019-04-11T00:41:35.621Z,46.70
2019-04-11T00:43:11.489Z,46.70
2019-04-11T00:44:48.090Z,46.60
2019-04-11T00:46:24.549Z,46.50
2019-04-11T00:48:01.736Z,46.60
2019-04-11T00:49:37.197Z,46.60
2019-04-11T00:51:13.881Z,46.60
2019-04-11T00:52:49.687Z,46.60
2019-04-11T00:54:25.232Z,46.50
2019-04-11T00:56:01.955Z,46.70
2019-04-11T00:57:37.559Z,46.70
2019-04-11T00:59:14.202Z,46.70
2019-04-11T01:00:49.744Z,46.80
2019-04-11T01:02:25.292Z,47.80
2019-04-11T01:04:01.332Z,47.10
2019-04-11T01:05:37.438Z,47.00
2019-04-11T01:07:12.971Z,47.10
2019-04-11T01:08:48.506Z,47.10
2019-04-11T01:10:24.525Z,47.10
2019-04-11T01:12:00.461Z,47.20
2019-04-11T01:13:46.662Z,47.20
2019-04-11T01:15:15.445Z,47.30
2019-04-11T01:16:57.047Z,47.30
2019-04-11T01:18:33.994Z,47.30
2019-04-11T01:20:11.244Z,47.30
2019-04-11T01:21:47.168Z,46.90
2019-04-11T01:23:22.800Z,47.40
2019-04-11T01:24:58.268Z,47.40
2019-04-11T01:26:34.994Z,47.40
2019-04-11T01:28:10.573Z,47.50
2019-04-11T01:29:47.304Z,47.60
2019-04-11T01:33:00.794Z,46.90
2019-04-11T01:34:37.125Z,47.90
2019-04-11T01:36:13.750Z,47.60
2019-04-11T01:37:50.221Z,47.90
2019-04-11T01:39:30.071Z,47.90
2019-04-11T01:41:06.582Z,47.80
2019-04-11T01:42:42.234Z,47.80
2019-04-11T01:44:18.683Z,47.80
2019-04-11T01:45:54.240Z,53.00
2019-04-11T01:51:03.847Z,49.00
2019-04-11T01:52:39.368Z,48.20
2019-04-11T01:57:25.963Z,48.70
2019-04-11T01:59:02.694Z,48.50
2019-04-11T02:00:58.859Z,48.70
2019-04-11T02:02:50.697Z,49.00
2019-04-11T02:04:30.791Z,48.80
2019-04-11T02:07:43.105Z,52.00
2019-04-11T02:09:18.618Z,49.10
2019-04-11T02:14:12.631Z,49.70
2019-04-11T02:15:42.677Z,50.60
2019-04-11T02:17:18.852Z,50.10
2019-04-11T02:25:50.640Z,50.10
2019-04-11T02:29:03.458Z,50.40
2019-04-11T02:32:18.524Z,50.10
2019-04-11T02:35:31.220Z,50.10
2019-04-11T02:37:09.286Z,50.60
2019-04-11T02:40:22.967Z,55.80
2019-04-11T02:41:59.154Z,50.60
2019-04-11T02:45:27.882Z,49.80
2019-04-11T02:47:04.545Z,55.90
2019-04-11T02:54:58.573Z,54.40
2019-04-11T02:56:36.290Z,54.90
2019-04-11T02:58:12.514Z,50.70
2019-04-11T02:59:48.978Z,51.60
2019-04-11T03:03:03.421Z,50.20
2019-04-11T03:07:52.280Z,50.10
2019-04-11T03:09:31.115Z,50.80
2019-04-11T03:11:27.766Z,50.30
2019-04-11T03:13:04.951Z,50.70
2019-04-11T03:15:01.095Z,50.50
2019-04-11T03:16:32.799Z,50.70
2019-04-11T03:18:01.499Z,50.70
2019-04-11T03:21:14.437Z,52.90
2019-04-11T03:22:53.056Z,51.00
2019-04-11T03:24:26.351Z,51.40
2019-04-11T03:26:03.248Z,52.70
2019-04-11T03:27:40.946Z,52.10
2019-04-11T03:29:19.897Z,51.70
2019-04-11T03:31:26.303Z,52.00
2019-04-11T03:36:38.622Z,52.00
2019-04-11T03:37:55.113Z,52.00
2019-04-11T03:39:28.261Z,52.20
2019-04-11T03:41:00.539Z,52.20
2019-04-11T03:42:36.708Z,52.50
2019-04-11T03:44:03.984Z,52.50
2019-04-11T03:45:55.910Z,52.80
2019-04-11T03:47:27.851Z,53.00
2019-04-11T03:49:00.138Z,53.10
2019-04-11T03:50:30.533Z,53.10
2019-04-11T03:52:05.913Z,53.20
2019-04-11T03:53:43.208Z,53.30
2019-04-11T03:55:19.903Z,53.30
2019-04-11T03:56:57.293Z,53.50
2019-04-11T03:58:33.305Z,53.50
2019-04-11T04:00:12.503Z,53.50
2019-04-11T04:01:48.723Z,53.70
2019-04-11T04:03:26.638Z,53.80
2019-04-11T04:05:04.034Z,53.80
2019-04-11T04:06:41.338Z,53.80
2019-04-11T04:08:17.976Z,54.00
2019-04-11T04:09:54.498Z,54.10
2019-04-11T04:11:32.568Z,54.20
2019-04-11T04:13:14.279Z,54.10
2019-04-11T04:14:49.535Z,54.40
2019-04-11T04:16:36.643Z,54.80
2019-04-11T04:18:12.955Z,54.30
2019-04-11T04:21:48.882Z,53.50
2019-04-11T04:23:27.335Z,53.40
2019-04-11T04:25:04.271Z,53.70
2019-04-11T04:28:16.718Z,53.10
2019-04-11T04:31:30.635Z,53.10
2019-04-11T04:34:44.382Z,55.70
2019-04-11T04:39:34.506Z,53.10
2019-04-11T04:42:54.336Z,52.80
2019-04-11T04:44:27.376Z,53.20
2019-04-11T04:46:17.011Z,53.50
2019-04-11T04:47:47.848Z,54.10
2019-04-11T04:49:18.628Z,53.60
2019-04-11T04:50:56.969Z,53.40
2019-04-11T04:52:32.665Z,53.40
2019-04-11T04:54:09.966Z,53.20
2019-04-11T04:55:45.835Z,53.20
2019-04-11T04:58:59.908Z,52.60
2019-04-11T05:00:35.430Z,53.10
2019-04-11T05:02:12.653Z,53.10
2019-04-11T05:03:48.757Z,52.90
2019-04-11T05:07:03.079Z,52.30
2019-04-11T05:08:39.077Z,52.80
2019-04-11T05:10:16.250Z,56.80
2019-04-11T05:11:53.025Z,53.10
2019-04-11T05:13:30.217Z,53.00
2019-04-11T05:15:08.021Z,52.90
2019-04-11T05:18:20.767Z,52.50
2019-04-11T05:19:56.869Z,53.00
2019-04-11T05:21:33.080Z,53.10
2019-04-11T05:23:08.785Z,53.40
2019-04-11T05:24:45.548Z,53.10
2019-04-11T05:26:21.544Z,53.10
2019-04-11T05:29:33.702Z,52.30
2019-04-11T05:31:10.184Z,52.80
2019-04-11T05:32:47.186Z,52.20
2019-04-11T05:34:23.840Z,52.40
2019-04-11T05:36:00.438Z,52.20
2019-04-11T05:37:37.669Z,52.10
2019-04-11T05:39:15.609Z,52.10
2019-04-11T05:40:50.456Z,51.30
2019-04-11T05:42:27.376Z,51.60
2019-04-11T05:44:07.706Z,51.50
2019-04-11T05:45:40.209Z,51.50
2019-04-11T05:47:18.572Z,51.00
2019-04-11T05:49:00.702Z,50.70
2019-04-11T05:50:36.206Z,50.30
2019-04-11T05:52:12.304Z,50.20
2019-04-11T05:53:51.326Z,50.00
2019-04-11T05:55:27.994Z,49.70
2019-04-11T05:57:03.870Z,49.10
2019-04-11T05:58:45.127Z,48.30
2019-04-11T06:00:26.311Z,47.60
2019-04-11T06:02:07.274Z,46.90
2019-04-11T06:03:43.226Z,46.50
2019-04-11T06:05:32.521Z,46.10
2019-04-11T06:07:11.937Z,46.20
2019-04-11T06:08:49.988Z,45.90
2019-04-11T06:10:28.263Z,46.00
2019-04-11T06:12:21.292Z,46.00
2019-04-11T06:13:59.564Z,45.60
2019-04-11T06:15:47.806Z,45.50
2019-04-11T06:17:23.927Z,45.10
2019-04-11T06:19:02.015Z,45.20
2019-04-11T06:20:43.056Z,45.10
2019-04-11T06:22:19.864Z,44.80
2019-04-11T06:24:14.167Z,44.50
2019-04-11T06:25:58.785Z,44.10
2019-04-11T06:27:47.958Z,43.70
2019-04-11T06:29:38.961Z,43.40
2019-04-11T06:31:33.620Z,43.30
2019-04-11T06:33:27.306Z,43.50
2019-04-11T06:35:21.963Z,43.60
2019-04-11T06:37:30.380Z,43.60
2019-04-11T06:39:11.360Z,43.10
2019-04-11T06:40:59.960Z,42.30
2019-04-11T06:42:37.376Z,42.10
2019-04-11T06:44:14.846Z,42.30
2019-04-11T06:46:09.096Z,42.70
2019-04-11T06:47:53.496Z,42.20
2019-04-11T06:49:44.650Z,41.80
2019-04-11T06:51:32.345Z,41.70
2019-04-11T06:53:08.981Z,41.30
2019-04-11T06:55:02.586Z,41.10
2019-04-11T06:56:43.411Z,40.00
2019-04-11T06:58:21.451Z,39.90
2019-04-11T06:59:58.781Z,39.20
2019-04-11T07:01:34.397Z,38.90
2019-04-11T07:03:19.812Z,38.60
2019-04-11T07:04:51.805Z,38.50
2019-04-11T07:06:29.380Z,37.90
2019-04-11T07:08:07.704Z,37.50
2019-04-11T07:09:49.104Z,37.60
2019-04-11T07:11:42.757Z,37.90
2019-04-11T07:13:32.728Z,37.70
2019-04-11T07:15:12.634Z,37.30
2019-04-11T07:17:07.984Z,37.40
2019-04-11T07:18:44.929Z,37.50
2019-04-11T07:20:41.321Z,37.40
2019-04-11T07:22:35.002Z,37.00
2019-04-11T07:24:14.610Z,36.90
2019-04-11T07:26:00.211Z,36.60
2019-04-11T07:27:36.649Z,36.30
2019-04-11T07:29:30.140Z,35.90
2019-04-11T07:31:23.458Z,35.30
2019-04-11T07:33:02.139Z,34.60
2019-04-11T07:34:56.536Z,34.30
2019-04-11T07:36:46.263Z,34.30
2019-04-11T07:38:24.204Z,34.00
2019-04-11T07:40:13.019Z,33.90
2019-04-11T07:41:52.494Z,33.40
2019-04-11T07:43:29.215Z,33.70
2019-04-11T07:45:14.167Z,33.90
2019-04-11T07:47:14.579Z,33.70
2019-04-11T07:48:40.209Z,33.60
2019-04-11T07:50:18.193Z,33.40
2019-04-11T07:51:55.177Z,33.20
2019-04-11T07:53:33.621Z,33.60
2019-04-11T07:55:10.967Z,33.30
2019-04-11T07:56:48.591Z,33.30
2019-04-11T07:58:25.883Z,33.90
2019-04-11T08:00:20.491Z,34.40
2019-04-11T08:02:08.685Z,34.00
2019-04-11T08:04:02.060Z,34.30
2019-04-11T08:05:58.504Z,34.30
2019-04-11T08:07:42.871Z,33.40
2019-04-11T08:09:22.876Z,33.10
2019-04-11T08:11:12.219Z,33.40
2019-04-11T08:12:49.703Z,34.00
2019-04-11T08:14:28.595Z,34.00
2019-04-11T08:16:22.637Z,32.90
2019-04-11T08:17:59.859Z,32.40
2019-04-11T08:19:53.391Z,32.30
2019-04-11T08:21:37.280Z,32.70
2019-04-11T08:23:13.778Z,33.40
2019-04-11T08:24:53.105Z,33.30
2019-04-11T08:26:46.423Z,33.30
2019-04-11T08:28:21.996Z,32.60
2019-04-11T08:30:00.302Z,32.50
2019-04-11T08:31:40.547Z,32.40
2019-04-11T08:33:18.324Z,33.20
2019-04-11T08:35:01.988Z,33.60
2019-04-11T08:36:37.988Z,33.60
2019-04-11T08:38:28.883Z,33.30
2019-04-11T08:40:09.404Z,33.10
2019-04-11T08:41:49.652Z,33.20
2019-04-11T08:43:28.790Z,33.60
2019-04-11T08:45:08.167Z,33.50
2019-04-11T08:46:45.342Z,33.60
2019-04-11T08:48:21.196Z,32.70
2019-04-11T08:49:58.204Z,32.50
2019-04-11T08:51:35.728Z,32.70
2019-04-11T08:53:17.046Z,32.90
2019-04-11T08:55:00.489Z,32.10
2019-04-11T08:56:38.979Z,31.60
2019-04-11T08:58:31.347Z,31.30
2019-04-11T09:00:13.842Z,31.80
2019-04-11T09:01:49.613Z,32.10
2019-04-11T09:03:35.731Z,32.70
2019-04-11T09:05:31.179Z,32.70
2019-04-11T09:07:07.341Z,32.40
2019-04-11T09:09:00.670Z,32.70
2019-04-11T09:10:56.102Z,32.20
2019-04-11T09:12:31.970Z,32.20
2019-04-11T09:14:26.401Z,31.30
2019-04-11T09:16:19.464Z,31.00
2019-04-11T09:18:03.373Z,34.10
2019-04-11T09:19:51.456Z,36.00
2019-04-11T09:21:46.587Z,35.40
2019-04-11T09:23:22.254Z,35.40
2019-04-11T09:25:10.781Z,35.60
2019-04-11T09:27:04.494Z,36.10
2019-04-11T09:28:41.873Z,35.80
2019-04-11T09:30:21.014Z,35.80
2019-04-11T09:31:58.199Z,35.60
2019-04-11T09:33:38.053Z,35.40
2019-04-11T09:35:24.777Z,35.60
2019-04-11T09:37:03.066Z,35.40
2019-04-11T09:38:40.413Z,34.60
2019-04-11T09:40:36.194Z,33.30
2019-04-11T09:42:23.147Z,33.10
2019-04-11T09:44:00.720Z,33.10
2019-04-11T09:45:54.242Z,32.90
2019-04-11T09:47:50.081Z,32.70
2019-04-11T09:49:27.247Z,31.70
2019-04-11T09:51:02.591Z,33.10
2019-04-11T09:52:40.936Z,32.20
2019-04-11T09:54:20.946Z,30.30
2019-04-11T09:56:15.123Z,30.40
2019-04-11T09:57:52.596Z,30.90
2019-04-11T09:59:29.849Z,31.30
2019-04-11T10:01:10.277Z,30.90
2019-04-11T10:02:48.472Z,30.20
2019-04-11T10:04:25.742Z,30.70
2019-04-11T10:06:05.649Z,30.30
2019-04-11T10:07:54.382Z,29.80
2019-04-11T10:09:46.911Z,29.80
2019-04-11T10:11:34.576Z,30.50
2019-04-11T10:13:16.367Z,30.80
2019-04-11T10:14:53.613Z,31.00
2019-04-11T10:16:35.962Z,31.00
2019-04-11T10:18:27.717Z,30.90
2019-04-11T10:20:04.538Z,30.70
2019-04-11T10:21:54.387Z,30.40
2019-04-11T10:23:40.817Z,30.20
2019-04-11T10:25:19.071Z,29.90
2019-04-11T10:27:12.707Z,30.00
2019-04-11T10:28:47.996Z,29.80
2019-04-11T10:30:34.039Z,29.80
2019-04-11T10:32:11.267Z,28.90
2019-04-11T10:34:04.646Z,29.20
2019-04-11T10:35:46.219Z,28.70
2019-04-11T10:37:21.893Z,28.60
2019-04-11T10:38:59.118Z,28.40
2019-04-11T10:40:52.451Z,28.80
2019-04-11T10:42:28.689Z,29.00
2019-04-11T10:44:05.549Z,29.00
2019-04-11T10:45:59.039Z,29.70
2019-04-11T10:47:36.739Z,29.10
2019-04-11T10:49:24.633Z,29.20
2019-04-11T10:51:18.093Z,29.10
2019-04-11T10:52:55.336Z,29.30
2019-04-11T10:54:32.548Z,29.40
2019-04-11T10:56:19.068Z,29.50
2019-04-11T10:58:05.259Z,29.80
2019-04-11T10:59:46.978Z,30.30
2019-04-11T11:01:29.982Z,30.60
2019-04-11T11:03:10.060Z,30.60
2019-04-11T11:04:53.693Z,30.40
2019-04-11T11:06:31.519Z,30.20
2019-04-11T11:08:15.636Z,30.00
2019-04-11T11:09:52.858Z,29.60
2019-04-11T11:11:30.432Z,30.20
2019-04-11T11:13:13.976Z,30.40
2019-04-11T11:15:04.132Z,30.80
2019-04-11T11:16:45.328Z,30.40
2019-04-11T11:18:43.996Z,30.90
2019-04-11T11:20:26.708Z,31.30
2019-04-11T11:21:59.876Z,31.60
2019-04-11T11:23:42.852Z,32.10
2019-04-11T11:25:37.137Z,32.40
2019-04-11T11:27:13.781Z,32.60
2019-04-11T11:28:51.075Z,32.60
2019-04-11T11:30:29.488Z,32.80
2019-04-11T11:32:07.161Z,33.10
2019-04-11T11:33:44.891Z,33.50
2019-04-11T11:35:27.046Z,33.40
2019-04-11T11:37:18.931Z,33.10
2019-04-11T11:38:56.097Z,33.10
2019-04-11T11:40:42.454Z,33.20
2019-04-11T11:42:30.496Z,33.40
2019-04-11T11:44:07.743Z,33.20
2019-04-11T11:46:01.278Z,33.20
2019-04-11T11:47:47.118Z,33.10
2019-04-11T11:49:38.844Z,33.80
2019-04-11T11:51:01.533Z,34.10
2019-04-11T11:52:51.704Z,34.30
2019-04-11T11:54:29.429Z,34.40
2019-04-11T11:56:07.574Z,34.00
2019-04-11T11:57:44.904Z,34.30
2019-04-11T11:59:30.877Z,34.20
2019-04-11T12:01:09.413Z,34.20
2019-04-11T12:03:02.393Z,33.90
2019-04-11T12:04:58.812Z,34.30
2019-04-11T12:06:36.898Z,34.30
2019-04-11T12:08:30.816Z,34.40
2019-04-11T12:10:19.481Z,34.40
2019-04-11T12:11:57.022Z,34.70
2019-04-11T12:13:39.458Z,35.00
2019-04-11T12:15:17.706Z,34.70
2019-04-11T12:17:05.257Z,34.90
2019-04-11T12:18:58.463Z,34.80
2019-04-11T12:20:44.722Z,35.20
2019-04-11T12:22:20.089Z,35.10
2019-04-11T12:24:01.133Z,35.00
2019-04-11T12:25:34.371Z,35.50
2019-04-11T12:27:13.014Z,35.50
2019-04-11T12:28:52.168Z,35.70
2019-04-11T12:30:41.995Z,35.90
2019-04-11T12:32:25.293Z,36.10
2019-04-11T12:34:06.024Z,35.60
2019-04-11T12:35:50.685Z,35.90
2019-04-11T12:37:27.954Z,36.10
2019-04-11T12:39:14.041Z,36.40
2019-04-11T12:41:07.877Z,36.40
2019-04-11T12:42:43.918Z,36.60
2019-04-11T12:44:29.479Z,36.00
2019-04-11T12:46:29.706Z,36.10
2019-04-11T12:48:00.361Z,35.80
2019-04-11T12:49:52.738Z,36.00
2019-04-11T12:51:34.264Z,36.30
2019-04-11T12:53:09.564Z,36.40
2019-04-11T12:54:55.348Z,36.30
2019-04-11T12:56:44.412Z,36.30
2019-04-11T12:58:36.442Z,36.30
2019-04-11T13:00:17.484Z,36.30
2019-04-11T13:01:57.172Z,36.10
2019-04-11T13:03:52.185Z,36.00
2019-04-11T13:05:27.714Z,35.80
2019-04-11T13:07:11.937Z,35.90
2019-04-11T13:08:55.271Z,36.00
2019-04-11T13:10:30.793Z,36.20
2019-04-11T13:12:08.102Z,35.90
2019-04-11T13:14:00.386Z,35.70
2019-04-11T13:15:37.537Z,35.70
2019-04-11T13:17:23.745Z,35.80
2019-04-11T13:19:03.502Z,35.70
2019-04-11T13:20:47.392Z,36.20
2019-04-11T13:22:27.477Z,35.80
2019-04-11T13:24:10.162Z,35.50
2019-04-11T13:26:03.944Z,35.50
2019-04-11T13:27:41.774Z,35.50
2019-04-11T13:29:35.315Z,35.50
2019-04-11T13:31:12.575Z,35.70
2019-04-11T13:32:50.068Z,35.90
2019-04-11T13:34:27.259Z,36.10
2019-04-11T13:36:07.090Z,36.20
2019-04-11T13:38:00.448Z,36.30
2019-04-11T13:39:35.974Z,36.20
2019-04-11T13:41:29.490Z,36.30
2019-04-11T13:43:24.643Z,36.30
2019-04-11T13:45:00.165Z,36.30
2019-04-11T13:46:35.475Z,36.30
2019-04-11T13:48:30.158Z,36.30
2019-04-11T13:50:16.235Z,36.30
2019-04-11T13:52:02.522Z,36.40
2019-04-11T13:53:37.858Z,36.40
2019-04-11T13:55:18.201Z,36.20
2019-04-11T13:57:12.308Z,36.30
2019-04-11T13:58:52.306Z,36.20
2019-04-11T14:00:38.730Z,36.40
2019-04-11T14:02:14.422Z,36.50
2019-04-11T14:04:00.580Z,36.50
2019-04-11T14:05:46.254Z,36.60
2019-04-11T14:07:24.108Z,36.10
2019-04-11T14:09:10.168Z,35.90
2019-04-11T14:11:03.963Z,36.10
2019-04-11T14:12:39.782Z,36.30
2019-04-11T14:14:16.954Z,36.30
2019-04-11T14:15:54.181Z,36.40
2019-04-11T14:17:31.367Z,36.30
2019-04-11T14:19:12.399Z,36.60
2019-04-11T14:20:49.719Z,36.60
2019-04-11T14:22:36.112Z,36.90
2019-04-11T14:24:29.659Z,37.10
2019-04-11T14:26:07.536Z,37.40
2019-04-11T14:27:45.890Z,37.70
2019-04-11T14:29:39.068Z,37.80
2019-04-11T14:31:21.950Z,37.80
2019-04-11T14:32:56.214Z,37.70
2019-04-11T14:34:36.430Z,37.50
2019-04-11T14:36:11.722Z,37.40
2019-04-11T14:37:48.919Z,37.50
2019-04-11T14:39:35.203Z,37.50
2019-04-11T14:41:16.311Z,37.60
2019-04-11T14:42:53.821Z,37.60
2019-04-11T14:44:30.975Z,37.70
2019-04-11T14:46:24.223Z,38.30
2019-04-11T14:48:17.663Z,37.80
2019-04-11T14:49:54.819Z,37.70
2019-04-11T14:51:46.294Z,37.70
2019-04-11T14:53:38.962Z,37.60
2019-04-11T14:55:19.004Z,37.60
2019-04-11T14:56:58.528Z,37.50
2019-04-11T14:58:53.851Z,38.30
2019-04-11T15:00:31.282Z,37.60
2019-04-11T15:02:24.327Z,37.10
2019-04-11T15:04:17.457Z,37.20
2019-04-11T15:06:00.002Z,37.00
2019-04-11T15:07:37.272Z,37.00
2019-04-11T15:09:18.210Z,37.20
2019-04-11T15:11:02.528Z,37.30
2019-04-11T15:12:39.628Z,37.30
2019-04-11T15:14:34.028Z,37.20
2019-04-11T15:16:27.097Z,37.40
2019-04-11T15:18:04.207Z,37.20
2019-04-11T15:19:41.373Z,36.70
2019-04-11T15:21:18.552Z,36.80
2019-04-11T15:22:58.604Z,36.90
2019-04-11T15:24:37.489Z,36.70
2019-04-11T15:26:15.710Z,36.80
2019-04-11T15:27:53.790Z,37.00
2019-04-11T15:29:30.180Z,37.00
2019-04-11T15:31:08.843Z,37.30
2019-04-11T15:32:58.625Z,37.20
2019-04-11T15:34:35.856Z,37.20
2019-04-11T15:36:16.118Z,37.00
2019-04-11T15:38:09.401Z,36.70
2019-04-11T15:39:49.337Z,36.60
2019-04-11T15:41:26.037Z,36.60
2019-04-11T15:43:12.335Z,36.70
2019-04-11T15:45:01.678Z,36.80
2019-04-11T15:46:39.045Z,36.80
2019-04-11T15:48:17.804Z,36.80
2019-04-11T15:50:11.094Z,36.90
2019-04-11T15:51:49.476Z,37.00
2019-04-11T15:53:36.970Z,36.90
2019-04-11T15:55:31.205Z,36.90
2019-04-11T15:57:12.220Z,37.00
2019-04-11T15:58:47.845Z,37.00
2019-04-11T16:00:34.849Z,37.00
2019-04-11T16:02:28.418Z,37.20
2019-04-11T16:04:05.595Z,37.70
2019-04-11T16:05:48.460Z,37.30
2019-04-11T16:07:41.861Z,37.40
2019-04-11T16:09:17.968Z,37.40
2019-04-11T16:10:58.073Z,37.60
2019-04-11T16:12:44.524Z,37.60
2019-04-11T16:14:20.322Z,37.70
2019-04-11T16:16:07.025Z,37.70
2019-04-11T16:17:58.130Z,37.90
2019-04-11T16:19:37.969Z,37.70
2019-04-11T16:21:18.749Z,37.80
2019-04-11T16:22:54.953Z,37.90
2019-04-11T16:24:37.431Z,37.20
2019-04-11T16:26:14.657Z,37.70
2019-04-11T16:27:54.886Z,37.60
2019-04-11T16:29:44.012Z,37.60
2019-04-11T16:31:20.209Z,37.70
2019-04-11T16:32:58.622Z,37.70
2019-04-11T16:34:48.242Z,37.80
2019-04-11T16:36:27.051Z,37.80
2019-04-11T16:38:03.270Z,37.80
2019-04-11T16:39:59.191Z,37.80
2019-04-11T16:41:53.891Z,37.90
2019-04-11T16:43:32.055Z,37.50
2019-04-11T16:45:26.232Z,38.10
2019-04-11T16:47:19.029Z,38.20
2019-04-11T16:48:55.909Z,38.20
2019-04-11T16:50:32.285Z,38.10
2019-04-11T16:52:08.584Z,38.10
2019-04-11T16:53:44.122Z,38.00
2019-04-11T16:55:19.672Z,38.00
2019-04-11T16:56:55.435Z,37.90
2019-04-11T16:58:30.949Z,37.90
2019-04-11T17:00:10.474Z,37.90
2019-04-11T17:01:46.034Z,38.00
2019-04-11T17:03:24.965Z,38.00
2019-04-11T17:04:59.924Z,37.90
2019-04-11T17:06:55.357Z,37.70
2019-04-11T17:08:32.039Z,37.80
2019-04-11T17:10:09.103Z,37.80
2019-04-11T17:11:44.644Z,37.90
2019-04-11T17:13:20.239Z,38.10
2019-04-11T17:14:55.776Z,38.20
2019-04-11T17:16:31.364Z,38.30
2019-04-11T17:18:06.890Z,38.30
2019-04-11T17:19:42.501Z,38.50
2019-04-11T17:21:18.018Z,38.60
2019-04-11T17:22:56.842Z,38.50
2019-04-11T17:24:32.384Z,38.70
2019-04-11T17:26:07.899Z,38.80
2019-04-11T17:27:45.425Z,38.90
2019-04-11T17:29:24.658Z,39.00
2019-04-11T17:30:58.430Z,39.10
2019-04-11T17:32:33.996Z,39.00
2019-04-11T17:34:09.555Z,39.10
2019-04-11T17:35:45.079Z,39.20
2019-04-11T17:37:20.628Z,44.80
2019-04-11T17:38:56.169Z,39.00
2019-04-11T17:40:31.687Z,38.90
2019-04-11T17:42:07.212Z,39.00
2019-04-11T17:43:46.774Z,39.00
2019-04-11T17:46:56.776Z,38.40
2019-04-11T17:48:32.861Z,38.80
2019-04-11T17:50:08.839Z,38.80
2019-04-11T17:51:55.183Z,38.70
2019-04-11T17:53:22.639Z,38.10
2019-04-11T17:55:00.286Z,38.50
2019-04-11T17:56:36.211Z,38.50
2019-04-11T17:58:11.751Z,38.50
2019-04-11T17:59:48.779Z,38.50
2019-04-11T18:01:25.735Z,38.40
2019-04-11T18:03:01.229Z,38.40
2019-04-11T18:04:37.820Z,38.50
2019-04-11T18:06:16.883Z,38.90
2019-04-11T18:07:50.552Z,38.50
2019-04-11T18:09:26.473Z,38.50
2019-04-11T18:11:02.042Z,38.50
2019-04-11T18:12:37.859Z,38.50
2019-04-11T18:14:13.375Z,38.60
2019-04-11T18:15:49.965Z,38.50
2019-04-11T18:17:25.496Z,38.50
2019-04-11T18:19:01.051Z,38.50
2019-04-11T18:20:37.595Z,38.50
2019-04-11T18:22:14.219Z,38.50
2019-04-11T18:23:50.669Z,38.50
2019-04-11T18:25:26.370Z,38.50
2019-04-11T18:27:01.893Z,38.60
2019-04-11T18:28:37.412Z,38.60
2019-04-11T18:30:14.251Z,38.70
2019-04-11T18:31:50.577Z,38.70
2019-04-11T18:33:26.139Z,38.80
2019-04-11T18:35:02.517Z,38.70
2019-04-11T18:36:38.075Z,38.70
2019-04-11T18:38:13.599Z,38.60
2019-04-11T18:39:49.513Z,38.60
2019-04-11T18:41:25.093Z,38.70
2019-04-11T18:43:00.891Z,38.80
2019-04-11T18:44:36.424Z,38.80
2019-04-11T18:46:11.956Z,38.80
2019-04-11T18:47:47.467Z,38.80
2019-04-11T18:49:22.984Z,39.00
2019-04-11T18:50:58.992Z,39.10
2019-04-11T18:52:34.577Z,39.20
2019-04-11T18:54:10.105Z,39.10
2019-04-11T18:55:45.625Z,39.20
2019-04-11T18:57:21.139Z,38.70
2019-04-11T18:58:56.669Z,39.30
2019-04-11T19:00:32.192Z,39.20
2019-04-11T19:02:09.849Z,39.20
2019-04-11T19:05:28.547Z,38.70
2019-04-11T19:06:59.269Z,39.30
2019-04-11T19:08:34.815Z,39.20
2019-04-11T19:10:14.430Z,39.20
2019-04-11T19:11:51.398Z,39.20
2019-04-11T19:13:26.087Z,38.90
2019-04-11T19:15:01.652Z,38.70
2019-04-11T19:16:37.169Z,38.90
2019-04-11T19:18:16.036Z,38.90
2019-04-11T19:19:49.923Z,38.90
2019-04-11T19:21:25.432Z,38.70
2019-04-11T19:23:00.969Z,38.60
2019-04-11T19:24:36.492Z,38.60
2019-04-11T19:26:14.471Z,38.70
2019-04-11T19:27:53.323Z,38.60
2019-04-11T19:29:26.537Z,38.70
2019-04-11T19:31:02.056Z,38.70
2019-04-11T19:32:37.650Z,38.70
2019-04-11T19:34:13.162Z,38.70
2019-04-11T19:35:48.684Z,38.70
2019-04-11T19:37:24.454Z,38.70
2019-04-11T19:39:01.245Z,38.60
2019-04-11T19:40:38.553Z,38.80
2019-04-11T19:42:18.729Z,38.60
2019-04-11T19:43:51.952Z,38.50
2019-04-11T19:45:27.473Z,38.50
2019-04-11T19:47:03.253Z,38.30
2019-04-11T19:48:39.021Z,39.30
2019-04-11T19:50:16.192Z,38.90
2019-04-11T19:51:51.784Z,38.90
2019-04-11T19:53:27.340Z,39.00
2019-04-11T19:55:05.367Z,39.10
2019-04-11T19:56:42.945Z,39.10
2019-04-11T19:58:20.473Z,39.10
2019-04-11T19:59:56.004Z,39.20
2019-04-11T20:01:31.519Z,39.20
2019-04-11T20:03:08.483Z,39.30
2019-04-11T20:04:46.532Z,39.90
2019-04-11T20:06:21.825Z,39.40
2019-04-11T20:07:57.697Z,39.30
2019-04-11T20:09:33.178Z,39.40
2019-04-11T20:11:08.722Z,40.10
2019-04-11T20:12:44.236Z,39.40
2019-04-11T20:14:19.760Z,39.50
2019-04-11T20:15:56.436Z,39.50
2019-04-11T20:17:43.476Z,39.60
2019-04-11T20:19:09.171Z,39.60
2019-04-11T20:20:46.082Z,39.50
2019-04-11T20:22:21.618Z,39.60
2019-04-11T20:23:57.120Z,39.80
2019-04-11T20:25:32.713Z,39.60
2019-04-11T20:27:08.302Z,39.70
2019-04-11T20:28:43.908Z,39.80
2019-04-11T20:30:19.450Z,39.70
2019-04-11T20:31:54.967Z,39.70
2019-04-11T20:33:33.861Z,39.60
2019-04-11T20:35:10.139Z,39.70
2019-04-11T20:36:45.276Z,39.80
2019-04-11T20:38:20.812Z,39.80
2019-04-11T20:39:56.325Z,39.80
2019-04-11T20:41:31.850Z,39.90
2019-04-11T20:43:10.055Z,39.60
2019-04-11T20:44:44.635Z,39.70
2019-04-11T20:46:20.153Z,39.90
2019-04-11T20:47:59.860Z,39.80
2019-04-11T20:49:34.855Z,40.00
2019-04-11T20:51:10.390Z,39.90
2019-04-11T20:52:45.898Z,39.70
2019-04-11T20:54:21.415Z,39.80
2019-04-11T20:55:57.009Z,40.00
2019-04-11T20:57:32.794Z,39.80
2019-04-11T20:59:10.297Z,39.80
2019-04-11T21:00:50.684Z,40.40
2019-04-11T21:02:23.313Z,39.70
2019-04-11T21:04:00.322Z,39.40
2019-04-11T21:05:36.047Z,39.30
2019-04-11T21:07:11.593Z,39.30
2019-04-11T21:08:47.189Z,39.20
2019-04-11T21:10:22.735Z,39.00
2019-04-11T21:11:58.229Z,39.00
2019-04-11T21:13:38.076Z,39.00
2019-04-11T21:15:11.027Z,39.00
2019-04-11T21:16:46.556Z,39.00
2019-04-11T21:18:25.652Z,39.10
2019-04-11T21:19:59.335Z,39.10
2019-04-11T21:21:35.939Z,39.10
2019-04-11T21:23:11.465Z,39.00
2019-04-11T21:24:46.984Z,39.00
2019-04-11T21:26:22.516Z,38.90
2019-04-11T21:27:59.154Z,38.90
2019-04-11T21:29:36.576Z,39.00
2019-04-11T21:31:12.108Z,39.10
2019-04-11T21:32:47.631Z,39.20
2019-04-11T21:34:23.226Z,39.20
2019-04-11T21:36:01.355Z,39.20
2019-04-11T21:37:36.968Z,39.30
2019-04-11T21:39:12.472Z,39.20
2019-04-11T21:40:48.000Z,39.30
2019-04-11T21:42:23.513Z,39.30
2019-04-11T21:43:59.023Z,39.30
2019-04-11T21:45:36.454Z,39.30
2019-04-11T21:47:13.103Z,39.30
2019-04-11T21:48:48.603Z,39.80
2019-04-11T21:50:25.086Z,39.90
2019-04-11T21:52:03.142Z,39.60
2019-04-11T21:53:38.819Z,39.50
2019-04-11T21:55:15.987Z,39.40
2019-04-11T21:56:52.098Z,39.50
2019-04-11T21:58:27.658Z,39.40
2019-04-11T22:00:03.539Z,39.40
2019-04-11T22:01:41.951Z,39.40
2019-04-11T22:03:17.925Z,39.40
2019-04-11T22:04:53.503Z,39.40
2019-04-11T22:06:30.541Z,39.40
2019-04-11T22:08:06.254Z,39.30
2019-04-11T22:09:42.079Z,39.20
2019-04-11T22:11:17.603Z,39.30
2019-04-11T22:12:53.113Z,39.20
2019-04-11T22:14:28.634Z,39.20
2019-04-11T22:16:04.158Z,39.20
2019-04-11T22:17:39.738Z,39.20
2019-04-11T22:19:21.700Z,39.30
2019-04-11T22:20:57.517Z,39.10
2019-04-11T22:22:33.030Z,39.30
2019-04-11T22:24:09.220Z,39.30
2019-04-11T22:25:44.748Z,39.30
2019-04-11T22:27:22.357Z,43.20
2019-04-11T22:28:57.726Z,39.40
2019-04-11T22:30:33.229Z,39.30
2019-04-11T22:32:09.784Z,39.30
2019-04-11T22:33:45.062Z,39.30
2019-04-11T22:35:20.577Z,39.40
2019-04-11T22:36:59.588Z,39.30
2019-04-11T22:38:33.315Z,39.30
2019-04-11T22:40:09.966Z,39.20
2019-04-11T22:41:45.508Z,39.20
2019-04-11T22:43:24.281Z,38.70
2019-04-11T22:44:58.583Z,39.30